Time;durP1;ratioP1;P1;durP2;ratioP2;P2;SDS_P1;SDS_P2;PMS_P1;PMS_P2;Temp;Humidity;BMP_temperature;BMP_pressure;BME280_temperature;BME280_humidity;BME280_pressure;Samples;Min_cycle;Max_cycle;Signal;HPM_P1;HPM_P2
2023/08/25 00:00:57;;;;;;;10.93;8.50;;;21.60;99.90;;;;;;5030522;28;20096;-79
2023/08/25 00:03:23;;;;;;;8.93;8.07;;;21.50;99.90;;;;;;5032010;28;20030;-79
2023/08/25 00:05:55;;;;;;;10.10;9.10;;;21.50;99.90;;;;;;5032871;28;20022;-79
2023/08/25 00:08:21;;;;;;;10.95;8.85;;;21.50;99.90;;;;;;5032643;28;20021;-79
2023/08/25 00:10:47;;;;;;;10.50;8.85;;;21.50;99.90;;;;;;5033759;28;20029;-79
2023/08/25 00:13:14;;;;;;;13.70;10.48;;;21.50;99.90;;;;;;5032684;28;20045;-80
2023/08/25 00:15:42;;;;;;;11.75;9.77;;;21.60;99.90;;;;;;5032416;28;20530;-80
2023/08/25 00:18:08;;;;;;;11.63;10.32;;;21.50;99.90;;;;;;5032409;28;20491;-79
2023/08/25 00:20:34;;;;;;;14.48;10.63;;;21.50;99.90;;;;;;5032528;28;20040;-80
2023/08/25 00:22:59;;;;;;;10.57;9.32;;;21.50;99.90;;;;;;5032175;28;20030;-79
2023/08/25 00:25:25;;;;;;;12.25;9.63;;;21.50;99.90;;;;;;5032509;28;20091;-80
2023/08/25 00:27:51;;;;;;;11.18;9.73;;;21.50;99.90;;;;;;5030763;28;20025;-79
2023/08/25 00:30:17;;;;;;;12.00;10.00;;;21.50;99.90;;;;;;5032224;28;20034;-79
2023/08/25 00:32:42;;;;;;;11.20;9.95;;;21.50;99.90;;;;;;5029118;28;20057;-79
2023/08/25 00:35:08;;;;;;;9.30;8.40;;;21.50;99.90;;;;;;5030833;28;20415;-79
2023/08/25 00:37:34;;;;;;;9.93;7.55;;;21.50;99.90;;;;;;5041708;28;20021;-79
2023/08/25 00:40:00;;;;;;;9.18;8.13;;;21.50;99.90;;;;;;5032344;28;20029;-79
2023/08/25 00:42:26;;;;;;;8.70;7.80;;;21.50;99.90;;;;;;5031689;28;20026;-79
2023/08/25 00:44:52;;;;;;;11.70;8.73;;;21.50;99.90;;;;;;5031115;28;20365;-79
2023/08/25 00:47:19;;;;;;;11.07;9.23;;;21.40;99.90;;;;;;5032202;28;20033;-80
2023/08/25 00:49:46;;;;;;;10.30;9.02;;;21.40;99.90;;;;;;5031955;28;20499;-80
2023/08/25 00:52:13;;;;;;;12.15;9.57;;;21.40;99.90;;;;;;5031467;28;20030;-79
2023/08/25 00:54:39;;;;;;;11.32;9.45;;;21.40;99.90;;;;;;5031093;28;20555;-79
2023/08/25 00:57:06;;;;;;;15.13;10.20;;;21.40;99.90;;;;;;5032172;28;20033;-80
2023/08/25 00:59:32;;;;;;;12.77;10.02;;;21.40;99.90;;;;;;5030082;28;20108;-79
2023/08/25 01:01:59;;;;;;;10.10;9.10;;;21.50;99.90;;;;;;5031851;28;20033;-79
2023/08/25 01:04:25;;;;;;;9.20;7.20;;;21.50;99.90;;;;;;5031705;28;20032;-79
2023/08/25 01:06:50;;;;;;;7.30;6.57;;;21.50;99.90;;;;;;5031864;28;20104;-79
2023/08/25 01:09:18;;;;;;;8.63;6.53;;;21.50;99.90;;;;;;5047129;28;20026;-80
2023/08/25 01:12:09;;;;;;;10.77;6.70;;;21.40;99.90;;;;;;5040675;28;20013;-80
2023/08/25 01:14:57;;;;;;;7.50;6.80;;;21.40;99.90;;;;;;5039420;28;20033;-79
2023/08/25 01:17:53;;;;;;;9.05;6.78;;;21.50;99.90;;;;;;5032931;28;20018;-80
2023/08/25 01:20:22;;;;;;;7.63;6.75;;;21.40;99.90;;;;;;5029388;28;20506;-80
2023/08/25 01:23:12;;;;;;;7.68;6.35;;;21.40;99.90;;;;;;5048134;28;20389;-79
2023/08/25 01:25:38;;;;;;;8.25;7.40;;;21.40;99.90;;;;;;5021838;28;20032;-79
2023/08/25 01:28:05;;;;;;;10.65;7.72;;;21.40;99.90;;;;;;5032222;28;20021;-80
2023/08/25 01:30:32;;;;;;;9.57;7.55;;;21.40;99.90;;;;;;5031413;28;20136;-79
2023/08/25 01:32:59;;;;;;;8.68;7.78;;;21.30;99.90;;;;;;5027809;28;20026;-79
2023/08/25 01:35:50;;;;;;;11.50;8.50;;;21.40;99.90;;;;;;5040977;28;20032;-79
2023/08/25 01:38:40;;;;;;;9.07;7.70;;;21.30;99.90;;;;;;5011656;28;20030;-79
2023/08/25 01:41:31;;;;;;;8.98;8.05;;;21.30;99.90;;;;;;5043676;28;20033;-80
2023/08/25 01:44:01;;;;;;;12.43;8.10;;;21.30;99.90;;;;;;5024997;28;20017;-79
2023/08/25 01:46:28;;;;;;;10.82;8.30;;;21.30;99.90;;;;;;5031574;28;20076;-79
2023/08/25 01:48:56;;;;;;;9.00;8.10;;;21.30;99.90;;;;;;5047555;28;20026;-80
2023/08/25 01:51:22;;;;;;;10.02;7.93;;;21.20;99.90;;;;;;5037974;28;20494;-80
2023/08/25 01:53:53;;;;;;;10.25;8.02;;;21.20;99.90;;;;;;5038156;28;20064;-79
2023/08/25 01:56:19;;;;;;;10.85;8.90;;;21.20;99.90;;;;;;5030838;28;20486;-79
2023/08/25 01:58:45;;;;;;;9.40;8.15;;;21.10;99.90;;;;;;5035167;28;20025;-79
2023/08/25 02:01:11;;;;;;;11.18;7.60;;;21.10;99.90;;;;;;5035112;28;20056;-79
2023/08/25 02:03:37;;;;;;;10.95;7.85;;;21.10;99.90;;;;;;5035179;28;20510;-80
2023/08/25 02:06:03;;;;;;;8.98;7.75;;;21.10;99.90;;;;;;5051418;28;20025;-79
2023/08/25 02:08:29;;;;;;;8.38;7.28;;;21.00;99.90;;;;;;5034975;28;20018;-79
2023/08/25 02:10:54;;;;;;;10.48;7.68;;;21.00;99.90;;;;;;5034975;28;20025;-79
2023/08/25 02:13:20;;;;;;;12.13;8.73;;;21.00;99.90;;;;;;5040250;28;20041;-80
2023/08/25 02:15:51;;;;;;;13.23;8.32;;;21.00;99.90;;;;;;5047918;28;20399;-79
2023/08/25 02:18:17;;;;;;;17.50;9.07;;;21.00;99.90;;;;;;5035215;28;20025;-79
2023/08/25 02:20:43;;;;;;;12.07;9.02;;;20.90;99.90;;;;;;5032057;28;20518;-79
2023/08/25 02:23:09;;;;;;;10.98;7.60;;;20.80;99.90;;;;;;5034547;28;20025;-79
2023/08/25 02:25:35;;;;;;;10.30;7.78;;;20.80;99.90;;;;;;5034455;28;20079;-80
2023/08/25 02:28:01;;;;;;;10.27;7.18;;;20.80;99.90;;;;;;5034074;28;20479;-79
2023/08/25 02:30:27;;;;;;;8.05;6.45;;;20.80;99.90;;;;;;5031315;28;20491;-79
2023/08/25 02:32:55;;;;;;;10.60;6.63;;;20.80;99.90;;;;;;5034419;28;20022;-80
2023/08/25 02:35:21;;;;;;;10.30;6.85;;;20.80;99.90;;;;;;5050803;28;20033;-79
2023/08/25 02:38:04;;;;;;;8.80;6.93;;;20.80;99.90;;;;;;5033150;28;20479;-79
2023/08/25 02:40:30;;;;;;;8.50;6.57;;;20.80;99.90;;;;;;5034584;28;20056;-79
2023/08/25 02:42:59;;;;;;;9.93;7.18;;;20.80;99.90;;;;;;5032983;28;20014;-79
2023/08/25 02:45:26;;;;;;;10.82;7.20;;;20.80;99.90;;;;;;5034129;28;20491;-80
2023/08/25 02:47:52;;;;;;;11.18;7.65;;;20.80;99.90;;;;;;5030866;28;20014;-79
2023/08/25 02:50:19;;;;;;;11.55;7.95;;;20.70;99.90;;;;;;5036928;28;20037;-79
2023/08/25 02:52:45;;;;;;;12.50;6.63;;;20.70;99.90;;;;;;5030822;28;20185;-80
2023/08/25 02:55:14;;;;;;;13.25;7.55;;;20.60;99.90;;;;;;5045464;28;20455;-79
2023/08/25 02:57:41;;;;;;;11.93;7.13;;;20.60;99.90;;;;;;5043297;28;20070;-80
2023/08/25 03:00:09;;;;;;;11.50;8.57;;;20.60;99.90;;;;;;5038381;28;20026;-80
2023/08/25 03:02:35;;;;;;;11.90;7.38;;;20.60;99.90;;;;;;5040710;28;20021;-79
2023/08/25 03:05:00;;;;;;;11.30;7.72;;;20.60;99.90;;;;;;5033887;28;20567;-79
2023/08/25 03:07:26;;;;;;;10.43;7.68;;;20.60;99.90;;;;;;5048591;28;20017;-80
2023/08/25 03:09:52;;;;;;;8.60;7.47;;;20.60;99.90;;;;;;5054626;28;20021;-80
2023/08/25 03:12:17;;;;;;;14.60;8.20;;;20.60;99.90;;;;;;5050374;28;20105;-80
2023/08/25 03:14:43;;;;;;;9.68;7.75;;;20.60;99.90;;;;;;5047995;28;20017;-79
2023/08/25 03:17:09;;;;;;;10.75;7.03;;;20.50;99.90;;;;;;5046326;28;20048;-79
2023/08/25 03:19:37;;;;;;;9.52;8.13;;;20.40;99.90;;;;;;5046170;28;20060;-80
2023/08/25 03:22:04;;;;;;;9.85;7.10;;;20.30;99.90;;;;;;5045518;28;20045;-80
2023/08/25 03:24:30;;;;;;;10.38;6.97;;;20.30;99.90;;;;;;5051552;28;20025;-80
2023/08/25 03:26:58;;;;;;;12.63;7.68;;;20.30;99.90;;;;;;5045791;28;20087;-80
2023/08/25 03:29:25;;;;;;;11.25;6.95;;;20.20;99.90;;;;;;5044292;28;20025;-80
2023/08/25 03:31:51;;;;;;;9.32;8.43;;;20.20;99.90;;;;;;5033311;28;20434;-80
2023/08/25 03:34:17;;;;;;;10.98;9.32;;;20.10;99.90;;;;;;5046414;28;20032;-80
2023/08/25 03:36:43;;;;;;;12.80;8.82;;;20.00;99.90;;;;;;5033070;28;20379;-79
2023/08/25 03:39:09;;;;;;;15.55;8.45;;;20.00;99.90;;;;;;5035136;28;20483;-80
2023/08/25 03:41:35;;;;;;;11.82;9.85;;;20.00;99.90;;;;;;5034275;28;20120;-80
2023/08/25 03:44:01;;;;;;;11.20;9.55;;;20.00;99.90;;;;;;5032371;28;20112;-80
2023/08/25 03:46:27;;;;;;;14.00;9.48;;;20.10;99.90;;;;;;5049188;28;20032;-80
2023/08/25 03:48:54;;;;;;;10.05;8.63;;;20.10;99.90;;;;;;5032921;28;20120;-80
2023/08/25 03:51:19;;;;;;;12.05;9.38;;;20.20;99.90;;;;;;5035778;28;20479;-80
2023/08/25 03:53:45;;;;;;;10.57;7.80;;;20.20;99.90;;;;;;5028289;28;20037;-80
2023/08/25 03:56:11;;;;;;;10.65;8.50;;;20.20;99.90;;;;;;5033819;28;20025;-79
2023/08/25 03:58:37;;;;;;;16.83;8.40;;;20.20;99.90;;;;;;5032258;28;20026;-80
2023/08/25 04:01:03;;;;;;;20.52;10.27;;;20.20;99.90;;;;;;5032807;28;20026;-80
2023/08/25 04:03:28;;;;;;;12.38;9.10;;;20.10;99.90;;;;;;5033767;28;20155;-79
2023/08/25 04:05:54;;;;;;;13.30;10.23;;;20.10;99.90;;;;;;5031995;28;20549;-79
2023/08/25 04:08:20;;;;;;;12.52;8.68;;;20.10;99.90;;;;;;5033938;28;20032;-80
2023/08/25 04:10:47;;;;;;;12.00;8.68;;;20.10;99.90;;;;;;5032698;28;20084;-80
2023/08/25 04:13:13;;;;;;;10.73;8.02;;;20.00;99.90;;;;;;5036821;28;20063;-80
2023/08/25 04:15:39;;;;;;;15.07;7.97;;;20.00;99.90;;;;;;5047214;28;20045;-80
2023/08/25 04:18:05;;;;;;;14.07;10.23;;;20.10;99.90;;;;;;5032474;28;20036;-80
2023/08/25 04:20:32;;;;;;;14.48;9.25;;;20.00;99.90;;;;;;5048677;28;20021;-80
2023/08/25 04:23:01;;;;;;;12.32;8.77;;;20.00;99.90;;;;;;5051984;28;20025;-79
2023/08/25 04:25:29;;;;;;;20.27;9.32;;;20.00;99.90;;;;;;5032313;28;20017;-80
2023/08/25 04:27:58;;;;;;;14.18;9.70;;;20.00;99.90;;;;;;5048748;28;20037;-80
2023/08/25 04:30:24;;;;;;;9.95;8.40;;;20.00;99.90;;;;;;5032020;28;20031;-80
2023/08/25 04:32:50;;;;;;;13.65;8.77;;;19.90;99.90;;;;;;5030642;28;20108;-80
2023/08/25 04:35:16;;;;;;;12.07;10.00;;;19.90;99.90;;;;;;5048845;28;20033;-79
2023/08/25 04:37:47;;;;;;;18.85;9.40;;;19.90;99.90;;;;;;5041597;28;20021;-79
2023/08/25 04:40:14;;;;;;;17.90;9.70;;;19.80;99.90;;;;;;5052265;28;20029;-80
2023/08/25 04:42:41;;;;;;;19.23;9.45;;;19.80;99.90;;;;;;5037050;28;20478;-80
2023/08/25 04:45:08;;;;;;;10.32;9.30;;;19.80;99.90;;;;;;5033173;28;20105;-79
2023/08/25 04:47:33;;;;;;;13.38;9.90;;;19.80;99.90;;;;;;5031939;28;20444;-80
2023/08/25 04:50:02;;;;;;;15.52;9.63;;;19.80;99.90;;;;;;5031823;28;20036;-80
2023/08/25 04:52:29;;;;;;;15.05;9.65;;;19.80;99.90;;;;;;5048532;28;20029;-80
2023/08/25 04:54:54;;;;;;;11.23;9.88;;;19.80;99.90;;;;;;5051651;28;20390;-80
2023/08/25 04:57:20;;;;;;;16.10;10.18;;;19.50;99.90;;;;;;5049064;28;20025;-80
2023/08/25 04:59:46;;;;;;;19.23;10.23;;;19.60;99.90;;;;;;5033357;28;20061;-80
2023/08/25 05:02:13;;;;;;;13.45;10.45;;;19.60;99.90;;;;;;5030032;28;20035;-80
2023/08/25 05:04:38;;;;;;;12.80;10.50;;;19.70;99.90;;;;;;5033710;28;20483;-79
2023/08/25 05:07:04;;;;;;;15.18;10.15;;;19.70;99.90;;;;;;5035548;28;20032;-80
2023/08/25 05:09:30;;;;;;;13.75;10.43;;;19.70;99.90;;;;;;5031672;28;20036;-80
2023/08/25 05:11:56;;;;;;;16.65;10.95;;;19.80;99.90;;;;;;5031369;28;20014;-80
2023/08/25 05:14:21;;;;;;;12.95;10.25;;;19.90;99.90;;;;;;5036111;28;20032;-80
2023/08/25 05:16:47;;;;;;;13.35;10.55;;;19.80;99.90;;;;;;5031786;28;20009;-80
2023/08/25 05:19:13;;;;;;;14.73;10.73;;;19.80;99.90;;;;;;5029046;28;20025;-79
2023/08/25 05:21:40;;;;;;;12.48;9.57;;;19.90;99.90;;;;;;5032876;28;20543;-80
2023/08/25 05:24:26;;;;;;;13.82;9.50;;;19.90;99.90;;;;;;5022293;28;20040;-80
2023/08/25 05:26:52;;;;;;;13.60;8.93;;;20.00;99.90;;;;;;5048050;28;20029;-80
2023/08/25 05:29:19;;;;;;;18.65;10.30;;;20.00;99.90;;;;;;5037029;28;20054;-79
2023/08/25 05:31:45;;;;;;;18.17;9.48;;;20.00;99.90;;;;;;5026990;28;20082;-80
2023/08/25 05:34:11;;;;;;;11.93;8.65;;;19.90;99.90;;;;;;5037785;28;20452;-79
2023/08/25 05:36:37;;;;;;;17.02;9.93;;;20.00;99.90;;;;;;5037132;28;20021;-79
2023/08/25 05:39:04;;;;;;;14.18;9.75;;;19.90;99.90;;;;;;5036820;28;20171;-79
2023/08/25 05:41:30;;;;;;;17.17;10.27;;;19.90;99.90;;;;;;5039065;28;20033;-80
2023/08/25 05:43:56;;;;;;;13.48;9.00;;;19.90;99.90;;;;;;5037798;28;20030;-79
2023/08/25 05:46:21;;;;;;;14.57;8.55;;;20.00;99.90;;;;;;5037445;28;20018;-79
2023/08/25 05:48:47;;;;;;;15.35;9.73;;;20.10;99.90;;;;;;5038939;28;20021;-79
2023/08/25 05:51:13;;;;;;;14.35;9.50;;;20.20;99.90;;;;;;5037235;28;20481;-79
2023/08/25 05:53:39;;;;;;;11.32;8.68;;;20.20;99.90;;;;;;5045075;28;20025;-80
2023/08/25 05:56:05;;;;;;;11.35;8.75;;;20.30;99.90;;;;;;5037712;28;20041;-79
2023/08/25 05:58:31;;;;;;;13.35;8.13;;;20.30;99.90;;;;;;5029223;28;20037;-79
2023/08/25 06:00:56;;;;;;;18.17;9.13;;;20.20;99.90;;;;;;5033096;28;20079;-79
2023/08/25 06:03:23;;;;;;;17.83;9.20;;;20.10;99.90;;;;;;5054293;28;20112;-79
2023/08/25 06:05:51;;;;;;;13.93;8.77;;;20.20;99.90;;;;;;5037767;28;20116;-80
2023/08/25 06:08:18;;;;;;;17.55;9.40;;;20.20;99.90;;;;;;5034848;28;20475;-79
2023/08/25 06:10:44;;;;;;;15.43;8.30;;;20.30;99.90;;;;;;5037494;28;20391;-79
2023/08/25 06:13:10;;;;;;;17.27;9.55;;;20.20;99.90;;;;;;5041081;28;20029;-80
2023/08/25 06:15:38;;;;;;;17.45;9.23;;;20.30;99.90;;;;;;5050101;28;20029;-83
2023/08/25 06:18:07;;;;;;;19.63;10.02;;;20.30;99.90;;;;;;5046938;28;20284;-81
2023/08/25 06:20:35;;;;;;;15.27;9.40;;;20.30;99.90;;;;;;5040466;28;20044;-81
2023/08/25 06:23:01;;;;;;;12.75;10.38;;;20.40;99.90;;;;;;5041468;28;20034;-81
2023/08/25 06:25:26;;;;;;;14.98;11.15;;;20.40;99.90;;;;;;5040538;28;20460;-81
2023/08/25 06:27:53;;;;;;;18.80;13.68;;;20.40;99.90;;;;;;5041134;28;20053;-81
2023/08/25 06:30:18;;;;;;;21.58;11.15;;;20.30;99.90;;;;;;5040168;28;20053;-81
2023/08/25 06:32:44;;;;;;;14.00;9.95;;;20.10;99.90;;;;;;5040563;28;20056;-81
2023/08/25 06:35:14;;;;;;;14.57;10.32;;;20.20;99.90;;;;;;5039906;28;20036;-82
2023/08/25 06:37:40;;;;;;;13.60;10.98;;;20.30;99.90;;;;;;5029309;28;20075;-80
2023/08/25 06:40:10;;;;;;;15.88;10.05;;;20.30;99.90;;;;;;5033766;28;20026;-79
2023/08/25 06:42:37;;;;;;;11.32;9.55;;;20.00;99.90;;;;;;5047430;28;20084;-80
2023/08/25 06:45:04;;;;;;;15.50;10.65;;;20.10;99.90;;;;;;5054937;28;20036;-80
2023/08/25 06:47:31;;;;;;;21.35;13.98;;;20.20;99.90;;;;;;5053481;28;20506;-79
2023/08/25 06:49:57;;;;;;;20.08;14.05;;;20.20;99.90;;;;;;5034602;28;20022;-77
2023/08/25 06:52:23;;;;;;;19.58;12.07;;;20.10;99.90;;;;;;5036215;28;20039;-78
2023/08/25 06:54:49;;;;;;;12.77;11.43;;;20.10;99.90;;;;;;5033927;28;20509;-78
2023/08/25 06:57:15;;;;;;;14.80;12.07;;;20.10;99.90;;;;;;5034140;28;20036;-77
2023/08/25 06:59:40;;;;;;;20.17;13.88;;;20.20;99.90;;;;;;5034791;28;20026;-76
2023/08/25 07:02:07;;;;;;;24.65;13.90;;;20.20;99.90;;;;;;5037284;28;20536;-76
2023/08/25 07:04:33;;;;;;;17.45;12.88;;;20.20;99.90;;;;;;5027671;28;20760;-77
2023/08/25 07:07:00;;;;;;;18.17;14.63;;;20.30;99.90;;;;;;5044192;28;20017;-77
2023/08/25 07:09:27;;;;;;;18.52;13.57;;;20.30;99.90;;;;;;5035504;28;20100;-77
2023/08/25 07:11:53;;;;;;;18.52;13.48;;;20.30;99.90;;;;;;5032356;28;20021;-77
2023/08/25 07:14:18;;;;;;;21.63;14.50;;;20.20;99.90;;;;;;5019994;28;20030;-77
2023/08/25 07:16:44;;;;;;;18.38;13.75;;;20.00;99.90;;;;;;5037334;28;20049;-79
2023/08/25 07:19:10;;;;;;;22.77;15.45;;;20.10;99.90;;;;;;5034789;28;20040;-80
2023/08/25 07:21:36;;;;;;;19.35;13.63;;;20.20;99.90;;;;;;5030102;28;20038;-80
2023/08/25 07:24:03;;;;;;;14.50;12.93;;;20.20;99.90;;;;;;5033986;28;20389;-81
2023/08/25 07:26:29;;;;;;;14.07;11.57;;;20.30;99.90;;;;;;5031154;28;20025;-80
2023/08/25 07:28:55;;;;;;;22.40;14.40;;;20.30;99.90;;;;;;5033764;28;20048;-80
2023/08/25 07:31:21;;;;;;;21.67;14.45;;;20.40;99.90;;;;;;5034498;28;20021;-81
2023/08/25 07:33:47;;;;;;;19.23;13.32;;;20.50;99.90;;;;;;5045782;28;20053;-81
2023/08/25 07:36:12;;;;;;;21.67;13.25;;;20.50;99.90;;;;;;5034877;28;20059;-79
2023/08/25 07:38:38;;;;;;;14.18;12.63;;;20.60;99.90;;;;;;5036844;28;20030;-78
2023/08/25 07:41:04;;;;;;;14.40;12.43;;;20.60;99.90;;;;;;5036041;28;20036;-79
2023/08/25 07:43:30;;;;;;;16.98;12.38;;;20.70;99.90;;;;;;5029810;28;20053;-81
2023/08/25 07:45:56;;;;;;;17.60;12.13;;;20.60;99.90;;;;;;5026152;28;20056;-81
2023/08/25 07:48:25;;;;;;;20.23;13.10;;;20.60;99.90;;;;;;5032957;28;20368;-81
2023/08/25 07:50:50;;;;;;;19.58;13.32;;;20.60;99.90;;;;;;5034689;28;20037;-81
2023/08/25 07:53:16;;;;;;;24.23;16.13;;;20.60;99.90;;;;;;5032148;28;20040;-81
2023/08/25 07:55:42;;;;;;;23.10;15.48;;;20.60;99.90;;;;;;5050639;28;20028;-81
2023/08/25 07:58:09;;;;;;;17.55;13.13;;;20.50;99.90;;;;;;5029631;28;20026;-81
2023/08/25 08:00:36;;;;;;;21.10;15.70;;;20.60;99.90;;;;;;5045956;28;20025;-82
2023/08/25 08:03:03;;;;;;;22.20;15.82;;;20.60;99.90;;;;;;5033006;28;20032;-81
2023/08/25 08:05:29;;;;;;;20.33;15.43;;;20.70;99.90;;;;;;5032447;28;20017;-81
2023/08/25 08:07:55;;;;;;;34.22;18.70;;;20.60;99.90;;;;;;5040034;28;20017;-82
2023/08/25 08:10:21;;;;;;;22.10;15.63;;;20.50;99.90;;;;;;5034103;28;20021;-82
2023/08/25 08:12:47;;;;;;;27.98;17.13;;;20.50;99.90;;;;;;5021880;28;20505;-82
2023/08/25 08:15:14;;;;;;;26.83;17.65;;;20.50;99.90;;;;;;5027902;28;20561;-82
2023/08/25 08:17:40;;;;;;;22.20;17.05;;;20.40;99.90;;;;;;5037663;28;20372;-82
2023/08/25 08:20:12;;;;;;;22.67;15.02;;;20.40;99.90;;;;;;5034951;28;20525;-81
2023/08/25 08:22:39;;;;;;;21.43;15.53;;;20.50;99.90;;;;;;5029291;28;20025;-81
2023/08/25 08:25:06;;;;;;;19.23;14.23;;;20.40;99.90;;;;;;5032770;28;20279;-80
2023/08/25 08:27:31;;;;;;;26.63;16.00;;;20.40;99.90;;;;;;5023573;28;20021;-80
2023/08/25 08:29:57;;;;;;;19.98;15.57;;;20.50;99.90;;;;;;5020070;28;20032;-79
2023/08/25 08:32:24;;;;;;;21.85;16.25;;;20.50;99.90;;;;;;4687430;28;10000805;-78
2023/08/25 08:34:50;;;;;;;23.42;17.13;;;20.50;99.90;;;;;;4500206;28;10001074;-76
2023/08/25 08:37:16;;;;;;;20.33;15.00;;;20.50;99.90;;;;;;5033080;28;20113;-76
2023/08/25 08:39:43;;;;;;;24.42;17.25;;;20.60;99.90;;;;;;5033224;28;20048;-76
2023/08/25 08:42:14;;;;;;;22.83;15.50;;;20.50;99.90;;;;;;5048197;28;20009;-75
2023/08/25 08:44:48;;;;;;;17.30;14.27;;;20.50;99.90;;;;;;5031783;28;20021;-76
2023/08/25 08:47:16;;;;;;;23.13;16.48;;;20.60;99.90;;;;;;5038007;28;20052;-76
2023/08/25 08:49:43;;;;;;;66.75;20.48;;;20.60;99.90;;;;;;5031243;28;20109;-76
2023/08/25 08:52:10;;;;;;;22.25;16.33;;;20.50;99.90;;;;;;5049308;28;20514;-78
2023/08/25 08:54:41;;;;;;;26.92;16.95;;;20.50;99.90;;;;;;5031472;28;20515;-78
2023/08/25 08:57:08;;;;;;;27.60;17.80;;;20.60;99.90;;;;;;5034141;28;20018;-79
2023/08/25 08:59:34;;;;;;;25.80;17.75;;;20.70;99.90;;;;;;5032341;28;20021;-78
2023/08/25 09:02:00;;;;;;;19.80;15.73;;;20.70;99.90;;;;;;5049255;28;20018;-79
2023/08/25 09:04:28;;;;;;;25.20;19.42;;;20.70;99.90;;;;;;5035739;28;20037;-81
2023/08/25 09:06:58;;;;;;;23.02;17.27;;;20.80;99.90;;;;;;5051109;28;20026;-81
2023/08/25 09:09:24;;;;;;;22.75;17.77;;;20.80;99.90;;;;;;5035575;28;20386;-81
2023/08/25 09:11:50;;;;;;;25.20;18.83;;;20.80;99.90;;;;;;5034665;28;20097;-81
2023/08/25 09:14:29;;;;;;;26.58;20.98;;;20.80;99.90;;;;;;5047154;28;20116;-81
2023/08/25 09:17:02;;;;;;;24.40;18.50;;;20.90;99.90;;;;;;5032851;28;20029;-82
2023/08/25 09:19:32;;;;;;;24.25;17.48;;;20.90;99.90;;;;;;5038196;28;20088;-82
2023/08/25 09:21:58;;;;;;;28.67;20.95;;;21.00;99.90;;;;;;5020355;28;20124;-82
2023/08/25 09:24:24;;;;;;;25.88;19.88;;;21.00;99.90;;;;;;5029123;28;20021;-81
2023/08/25 09:26:50;;;;;;;23.10;17.13;;;21.10;99.90;;;;;;5018023;28;20030;-83
2023/08/25 09:29:17;;;;;;;25.02;19.00;;;21.10;99.90;;;;;;5048457;28;20026;-83
2023/08/25 09:31:44;;;;;;;22.30;17.67;;;21.10;99.90;;;;;;5037718;28;20059;-83
2023/08/25 09:34:15;;;;;;;31.38;21.33;;;21.10;99.90;;;;;;5030635;28;20057;-83
2023/08/25 09:37:07;;;;;;;24.58;19.30;;;21.20;99.90;;;;;;5048676;28;20017;-83
2023/08/25 09:39:44;;;;;;;35.55;22.20;;;21.10;99.90;;;;;;5027547;28;20057;-82
2023/08/25 09:42:10;;;;;;;28.60;20.35;;;21.00;99.90;;;;;;5051487;28;20029;-82
2023/08/25 09:44:37;;;;;;;27.42;20.20;;;20.90;99.90;;;;;;5029461;28;20446;-81
2023/08/25 09:47:06;;;;;;;28.02;20.98;;;21.00;99.90;;;;;;5040113;28;20117;-79
2023/08/25 09:49:39;;;;;;;28.88;20.40;;;21.00;99.90;;;;;;5032192;28;20053;-80
2023/08/25 09:52:12;;;;;;;31.90;22.55;;;21.00;99.90;;;;;;5048156;28;20072;-81
2023/08/25 09:54:38;;;;;;;25.65;20.48;;;21.00;99.90;;;;;;5040587;28;20112;-81
2023/08/25 09:57:04;;;;;;;22.30;18.63;;;21.00;99.90;;;;;;5028782;28;20045;-81
2023/08/25 09:59:30;;;;;;;25.75;20.50;;;21.00;99.90;;;;;;5031338;28;20052;-82
2023/08/25 10:01:58;;;;;;;26.10;19.48;;;21.10;99.90;;;;;;5034086;28;20029;-82
2023/08/25 10:04:24;;;;;;;19.50;16.48;;;21.20;99.90;;;;;;5036142;28;20025;-82
2023/08/25 10:06:51;;;;;;;16.25;14.60;;;21.20;99.90;;;;;;5051017;28;20013;-83
2023/08/25 10:09:19;;;;;;;15.63;13.38;;;21.20;99.90;;;;;;5048404;28;20041;-83
2023/08/25 10:11:49;;;;;;;17.45;14.13;;;21.10;99.90;;;;;;5034764;28;20041;-83
2023/08/25 10:14:17;;;;;;;14.98;11.35;;;21.20;99.90;;;;;;5053619;28;20021;-81
2023/08/25 10:17:09;;;;;;;13.23;11.63;;;21.20;99.90;;;;;;5030845;28;20036;-84
2023/08/25 10:19:37;;;;;;;10.13;9.13;;;21.20;99.90;;;;;;5058039;28;20135;-83
2023/08/25 10:22:06;;;;;;;10.98;8.88;;;21.20;99.90;;;;;;5031537;28;20037;-84
2023/08/25 10:24:34;;;;;;;12.50;10.77;;;21.00;99.90;;;;;;5032143;28;20105;-80
2023/08/25 10:27:01;;;;;;;10.60;9.40;;;21.00;99.90;;;;;;5034654;28;20029;-78
2023/08/25 10:29:27;;;;;;;10.90;9.18;;;21.00;99.90;;;;;;5034837;28;20018;-78
2023/08/25 10:32:04;;;;;;;10.98;9.05;;;21.00;99.90;;;;;;5031079;28;20026;-80
2023/08/25 10:34:43;;;;;;;12.15;9.27;;;21.00;99.90;;;;;;5033230;28;20403;-81
2023/08/25 10:37:21;;;;;;;12.65;10.10;;;21.10;99.90;;;;;;5023665;28;20034;-80
2023/08/25 10:39:52;;;;;;;14.48;8.65;;;21.10;99.90;;;;;;5033626;28;20485;-80
2023/08/25 10:42:33;;;;;;;9.85;8.65;;;21.10;99.90;;;;;;5026173;28;20025;-77
2023/08/25 10:45:11;;;;;;;11.77;9.15;;;21.00;99.90;;;;;;5031416;28;20029;-78
2023/08/25 10:47:41;;;;;;;12.23;9.27;;;21.00;99.90;;;;;;5035043;28;20379;-77
2023/08/25 10:50:08;;;;;;;10.27;9.10;;;21.00;99.90;;;;;;5030881;28;20028;-77
2023/08/25 10:52:33;;;;;;;10.10;8.63;;;21.00;99.90;;;;;;5035407;28;20029;-78
2023/08/25 10:55:28;;;;;;;21.40;11.32;;;20.90;99.90;;;;;;5031958;28;20023;-76
2023/08/25 10:58:04;;;;;;;13.00;10.40;;;20.80;99.90;;;;;;5050249;28;20030;-79
2023/08/25 11:00:36;;;;;;;15.32;10.35;;;20.90;99.90;;;;;;5029290;28;20061;-80
2023/08/25 11:03:03;;;;;;;13.30;10.20;;;21.10;99.90;;;;;;5027056;28;20574;-81
2023/08/25 11:05:28;;;;;;;11.60;9.70;;;21.10;99.90;;;;;;5024312;28;20474;-81
2023/08/25 11:07:55;;;;;;;11.07;8.93;;;21.10;99.90;;;;;;5050566;28;20026;-82
2023/08/25 11:10:22;;;;;;;9.80;8.80;;;21.10;99.90;;;;;;5035172;28;20021;-82
2023/08/25 11:12:58;;;;;;;9.40;8.55;;;21.20;99.90;;;;;;5032216;28;20124;-81
2023/08/25 11:15:28;;;;;;;10.50;9.27;;;21.40;99.90;;;;;;5032645;28;20052;-82
2023/08/25 11:17:55;;;;;;;8.85;8.02;;;21.40;99.90;;;;;;5047874;28;20112;-82
2023/08/25 11:20:21;;;;;;;10.40;9.30;;;21.60;99.90;;;;;;5027043;28;20116;-82
2023/08/25 11:22:54;;;;;;;8.65;7.63;;;21.60;99.90;;;;;;5027706;28;20026;-84
2023/08/25 11:25:20;;;;;;;9.63;8.68;;;21.60;99.90;;;;;;5029524;28;20523;-83
2023/08/25 11:27:50;;;;;;;10.57;9.35;;;21.70;99.90;;;;;;5026407;28;20022;-83
2023/08/25 11:30:17;;;;;;;8.68;7.78;;;21.70;99.90;;;;;;5026355;28;20037;-84
2023/08/25 11:32:46;;;;;;;8.93;8.02;;;21.70;99.90;;;;;;5033963;28;20084;-83
2023/08/25 11:35:13;;;;;;;9.00;7.55;;;21.80;99.90;;;;;;5032421;28;20467;-83
2023/08/25 11:37:39;;;;;;;7.07;6.38;;;21.70;99.90;;;;;;5033269;28;20820;-83
2023/08/25 11:40:09;;;;;;;7.00;5.68;;;21.60;99.90;;;;;;5029121;28;20061;-83
2023/08/25 11:42:35;;;;;;;9.00;7.90;;;21.30;99.90;;;;;;5030273;28;20076;-82
2023/08/25 11:45:07;;;;;;;10.45;8.10;;;21.40;99.90;;;;;;5032807;28;20024;-80
2023/08/25 11:47:33;;;;;;;9.50;8.27;;;21.50;99.90;;;;;;5032876;28;20013;-81
2023/08/25 11:50:00;;;;;;;9.88;7.97;;;21.50;99.90;;;;;;5031927;28;20018;-81
2023/08/25 11:52:26;;;;;;;11.07;8.32;;;21.50;99.90;;;;;;5031188;28;20033;-81
2023/08/25 11:54:52;;;;;;;8.93;8.02;;;21.60;99.90;;;;;;5032159;28;20025;-82
2023/08/25 11:57:18;;;;;;;9.52;8.00;;;21.70;99.90;;;;;;5031553;28;20029;-82
2023/08/25 11:59:52;;;;;;;9.20;7.85;;;21.70;99.90;;;;;;5029044;28;20125;-82
2023/08/25 12:02:19;;;;;;;8.68;7.78;;;21.80;99.90;;;;;;5028366;28;20029;-82
2023/08/25 12:04:55;;;;;;;9.80;8.48;;;21.90;99.90;;;;;;5031902;28;20137;-82
2023/08/25 12:07:26;;;;;;;9.02;8.18;;;21.90;99.90;;;;;;5032214;28;20013;-82
2023/08/25 12:09:59;;;;;;;8.73;7.93;;;22.00;99.90;;;;;;5032049;28;20096;-82
2023/08/25 12:12:29;;;;;;;7.88;7.15;;;21.90;99.90;;;;;;5031969;28;20053;-83
2023/08/25 12:14:55;;;;;;;9.35;8.25;;;22.10;99.90;;;;;;5032052;28;20052;-83
2023/08/25 12:17:22;;;;;;;11.73;8.35;;;22.10;99.90;;;;;;5031910;28;20025;-83
2023/08/25 12:19:48;;;;;;;8.48;7.30;;;22.20;99.90;;;;;;5027998;28;20030;-83
2023/08/25 12:22:15;;;;;;;9.45;7.45;;;22.20;99.90;;;;;;5023741;28;20045;-83
2023/08/25 12:24:42;;;;;;;7.80;6.90;;;22.40;99.90;;;;;;5029867;28;20063;-84
2023/08/25 12:27:08;;;;;;;9.30;8.32;;;22.40;99.90;;;;;;5031738;28;20013;-82
2023/08/25 12:29:34;;;;;;;10.85;8.15;;;22.50;99.90;;;;;;5047858;28;20021;-83
2023/08/25 12:32:00;;;;;;;8.75;7.78;;;22.60;99.90;;;;;;5032374;28;20132;-82
2023/08/25 12:34:26;;;;;;;7.47;6.78;;;22.70;99.90;;;;;;5048799;28;20021;-83
2023/08/25 12:36:52;;;;;;;8.50;7.70;;;22.70;99.90;;;;;;5032215;28;20026;-82
2023/08/25 12:39:18;;;;;;;8.18;7.28;;;22.80;99.90;;;;;;5049057;28;20029;-83